createdAt,value
2023-05-23T00:02:13.555Z,7.40
2023-05-23T00:07:16.376Z,6.75
2023-05-23T00:12:17.963Z,6.07
2023-05-23T00:17:19.777Z,5.85
2023-05-23T00:22:21.946Z,7.30
2023-05-23T00:27:23.956Z,8.38
2023-05-23T00:32:25.550Z,10.45
2023-05-23T00:37:28.307Z,9.70
2023-05-23T00:42:29.833Z,8.55
2023-05-23T00:47:32.064Z,9.75
2023-05-23T00:52:34.072Z,9.25
2023-05-23T00:57:40.411Z,8.02
2023-05-23T01:02:45.178Z,6.97
2023-05-23T01:07:47.746Z,7.22
2023-05-23T01:12:58.174Z,7.13
2023-05-23T01:18:08.544Z,7.20
2023-05-23T01:23:19.117Z,6.97
2023-05-23T01:28:26.223Z,7.80
2023-05-23T01:33:28.802Z,7.07
2023-05-23T01:38:30.723Z,6.93
2023-05-23T01:43:32.489Z,7.47
2023-05-23T01:48:35.490Z,7.35
2023-05-23T01:53:37.577Z,7.32
2023-05-23T01:58:39.396Z,7.50
2023-05-23T02:03:40.964Z,7.20
2023-05-23T02:08:43.186Z,7.68
2023-05-23T02:13:44.740Z,6.72
2023-05-23T02:18:47.317Z,7.38
2023-05-23T02:23:48.907Z,8.05
2023-05-23T02:28:51.008Z,7.72
2023-05-23T02:33:53.612Z,7.50
2023-05-23T02:38:55.246Z,6.07
2023-05-23T02:43:56.748Z,6.88
2023-05-23T02:48:58.282Z,5.90
2023-05-23T02:53:59.776Z,5.95
2023-05-23T02:59:01.323Z,5.60
2023-05-23T03:04:03.581Z,4.63
2023-05-23T03:09:05.985Z,5.20
2023-05-23T03:14:07.487Z,4.13
2023-05-23T03:19:09.067Z,3.63
2023-05-23T03:24:10.592Z,4.60
2023-05-23T03:29:12.109Z,4.15
2023-05-23T03:34:13.654Z,4.10
2023-05-23T03:39:15.345Z,4.57
2023-05-23T03:44:16.837Z,3.58
2023-05-23T03:49:18.345Z,4.55
2023-05-23T03:54:19.848Z,4.65
2023-05-23T03:59:21.428Z,4.53
2023-05-23T04:04:25.066Z,4.20
2023-05-23T04:09:26.634Z,5.10
2023-05-23T04:14:28.209Z,5.38
2023-05-23T04:19:30.894Z,5.65
2023-05-23T04:24:32.423Z,5.78
2023-05-23T04:29:35.994Z,5.93
2023-05-23T04:34:38.012Z,5.50
2023-05-23T04:39:39.739Z,6.50
2023-05-23T04:44:41.842Z,5.55
2023-05-23T04:49:43.518Z,5.32
2023-05-23T04:54:46.550Z,6.40
2023-05-23T04:59:48.257Z,6.25
2023-05-23T05:04:49.814Z,5.53
2023-05-23T05:09:51.435Z,6.05
2023-05-23T05:14:54.074Z,5.07
2023-05-23T05:19:55.886Z,5.57
2023-05-23T05:24:57.489Z,5.05
2023-05-23T05:30:04.371Z,4.82
2023-05-23T05:35:08.556Z,3.80
2023-05-23T05:40:10.226Z,5.70
2023-05-23T05:45:11.744Z,3.80
2023-05-23T05:50:13.306Z,3.60
2023-05-23T05:55:14.947Z,4.05
2023-05-23T06:00:18.945Z,3.45
2023-05-23T06:05:20.599Z,3.28
2023-05-23T06:10:22.120Z,3.80
2023-05-23T06:15:23.815Z,3.85
2023-05-23T06:20:25.781Z,4.50
2023-05-23T06:25:27.567Z,5.68
2023-05-23T06:30:29.774Z,4.57
2023-05-23T06:35:31.473Z,4.03
2023-05-23T06:40:33.005Z,3.13
2023-05-23T06:45:35.932Z,4.03
2023-05-23T06:50:37.545Z,3.65
2023-05-23T06:55:39.124Z,3.63
2023-05-23T07:00:40.910Z,4.22
2023-05-23T07:05:42.718Z,4.70
2023-05-23T07:10:44.412Z,3.47
2023-05-23T07:15:46.011Z,3.63
2023-05-23T07:20:47.536Z,4.82
2023-05-23T07:26:01.096Z,3.97
2023-05-23T07:31:03.819Z,4.03
2023-05-23T07:36:05.631Z,3.85
2023-05-23T07:41:11.996Z,4.65
2023-05-23T07:46:14.128Z,4.63
2023-05-23T07:51:15.766Z,3.97
2023-05-23T07:56:17.385Z,3.28
2023-05-23T08:01:19.231Z,3.42
2023-05-23T08:06:20.791Z,3.85
2023-05-23T08:11:22.381Z,4.25
2023-05-23T08:16:24.059Z,3.95
2023-05-23T08:21:25.877Z,4.32
2023-05-23T08:26:30.444Z,5.10
2023-05-23T08:31:33.679Z,4.45
2023-05-23T08:36:37.000Z,3.92
2023-05-23T08:41:39.445Z,4.05
2023-05-23T08:46:46.482Z,3.30
2023-05-23T08:51:52.024Z,3.92
2023-05-23T08:56:53.708Z,3.63
2023-05-23T09:01:56.935Z,3.80
2023-05-23T09:06:59.271Z,3.58
2023-05-23T09:12:01.052Z,3.78
2023-05-23T09:17:04.545Z,3.90
2023-05-23T09:22:06.560Z,3.75
2023-05-23T09:27:08.546Z,3.90
2023-05-23T09:32:13.058Z,4.50
2023-05-23T09:37:19.449Z,3.40
2023-05-23T09:42:24.109Z,4.73
2023-05-23T09:47:26.434Z,3.45
2023-05-23T09:52:28.082Z,3.58
2023-05-23T09:57:30.583Z,3.20
2023-05-23T10:03:12.886Z,3.35
2023-05-23T10:09:03.849Z,2.83
2023-05-23T10:14:09.190Z,3.30
2023-05-23T10:19:19.842Z,3.60
2023-05-23T10:24:22.337Z,4.25
2023-05-23T10:29:25.097Z,2.90
2023-05-23T10:34:38.266Z,3.10
2023-05-23T10:40:14.199Z,3.10
2023-05-23T10:45:16.975Z,3.00
2023-05-23T10:50:34.889Z,3.30
2023-05-23T10:55:37.257Z,3.28
2023-05-23T11:00:39.269Z,3.53
2023-05-23T11:05:47.937Z,4.50
2023-05-23T11:10:53.057Z,3.75
2023-05-23T11:15:55.303Z,3.00
2023-05-23T11:21:01.181Z,2.70
2023-05-23T11:26:02.734Z,3.10
2023-05-23T11:31:04.971Z,2.90
2023-05-23T11:36:07.684Z,3.97
2023-05-23T11:41:09.222Z,4.35
2023-05-23T11:46:11.148Z,3.20
2023-05-23T11:51:13.434Z,2.75
2023-05-23T11:56:15.822Z,4.07
2023-05-23T12:01:17.399Z,3.38
2023-05-23T12:06:19.780Z,3.17
2023-05-23T12:11:23.681Z,2.92
2023-05-23T12:16:25.462Z,3.80
2023-05-23T12:21:49.671Z,3.35
2023-05-23T12:27:10.256Z,3.17
2023-05-23T12:32:11.854Z,2.95
2023-05-23T12:42:18.883Z,2.90
2023-05-23T12:47:20.758Z,3.17
2023-05-23T12:52:22.415Z,2.92
2023-05-23T12:57:23.987Z,3.05
2023-05-23T13:02:25.807Z,3.20
2023-05-23T13:07:27.384Z,2.97
2023-05-23T13:12:29.775Z,3.25
2023-05-23T13:17:31.452Z,2.83
2023-05-23T13:22:33.416Z,3.05
2023-05-23T13:27:35.107Z,2.90
2023-05-23T13:32:36.681Z,2.90
2023-05-23T13:37:38.587Z,2.47
2023-05-23T13:42:40.546Z,4.18
2023-05-23T13:47:42.160Z,3.00
2023-05-23T13:52:46.508Z,2.47
2023-05-23T13:57:49.919Z,2.42
2023-05-23T14:02:51.601Z,2.67
2023-05-23T14:07:53.264Z,3.00
2023-05-23T14:12:55.242Z,2.42
2023-05-23T14:17:57.088Z,2.75
2023-05-23T14:22:58.702Z,2.55
2023-05-23T14:28:00.592Z,3.08
2023-05-23T14:33:02.219Z,3.50
2023-05-23T14:38:03.971Z,3.10
2023-05-23T14:43:05.542Z,2.65
2023-05-23T14:48:07.573Z,3.78
2023-05-23T14:53:09.185Z,3.05
2023-05-23T14:58:10.738Z,3.05
2023-05-23T15:03:12.624Z,2.60
2023-05-23T15:08:14.253Z,2.35
2023-05-23T15:13:16.131Z,2.53
2023-05-23T15:18:31.768Z,2.83
2023-05-23T15:23:39.273Z,2.60
2023-05-23T15:28:40.897Z,2.80
2023-05-23T15:33:42.453Z,3.33
2023-05-23T15:38:44.518Z,3.00
2023-05-23T15:43:46.051Z,2.72
2023-05-23T15:48:47.631Z,2.60
2023-05-23T15:54:00.674Z,2.08
2023-05-23T15:59:03.534Z,2.35
2023-05-23T16:04:05.462Z,2.80
2023-05-23T16:09:07.053Z,2.83
2023-05-23T16:14:08.714Z,2.78
2023-05-23T16:19:10.369Z,2.72
2023-05-23T16:24:14.034Z,2.65
2023-05-23T16:29:15.666Z,3.20
2023-05-23T16:34:17.183Z,2.80
2023-05-23T16:39:18.940Z,3.03
2023-05-23T16:44:20.758Z,2.70
2023-05-23T16:49:22.312Z,2.92
2023-05-23T16:54:23.888Z,3.33
2023-05-23T16:59:25.486Z,3.53
2023-05-23T17:04:27.043Z,2.30
2023-05-23T17:09:28.572Z,3.90
2023-05-23T17:14:30.198Z,2.95
2023-05-23T17:19:31.823Z,2.80
2023-05-23T17:24:33.410Z,2.70
2023-05-23T17:29:35.022Z,2.90
2023-05-23T17:34:36.618Z,2.63
2023-05-23T17:39:38.195Z,5.20
2023-05-23T17:44:40.243Z,4.10
2023-05-23T17:49:41.829Z,3.03
2023-05-23T17:54:43.410Z,3.80
2023-05-23T17:59:44.952Z,2.45
2023-05-23T18:04:46.663Z,4.07
2023-05-23T18:09:48.648Z,2.83
2023-05-23T18:14:51.857Z,3.33
2023-05-23T18:19:53.425Z,3.17
2023-05-23T18:24:55.023Z,2.60
2023-05-23T18:29:56.679Z,3.05
2023-05-23T18:34:58.375Z,2.70
2023-05-23T18:40:00.418Z,2.50
2023-05-23T18:45:02.025Z,2.78
2023-05-23T18:50:03.656Z,3.33
2023-05-23T18:55:05.904Z,2.53
2023-05-23T19:00:09.032Z,3.17
2023-05-23T19:05:11.462Z,4.22
2023-05-23T19:10:13.006Z,3.30
2023-05-23T19:15:14.997Z,2.97
2023-05-23T19:20:20.220Z,3.10
2023-05-23T19:25:21.857Z,2.78
2023-05-23T19:30:24.246Z,3.03
2023-05-23T19:35:26.008Z,2.92
2023-05-23T19:40:27.647Z,4.00
2023-05-23T19:45:29.181Z,3.22
2023-05-23T19:50:30.738Z,3.53
2023-05-23T19:55:33.122Z,3.42
2023-05-23T20:00:34.631Z,3.78
2023-05-23T20:05:36.128Z,3.50
2023-05-23T20:10:37.763Z,3.28
2023-05-23T20:15:40.285Z,3.45
2023-05-23T20:20:42.544Z,3.65
2023-05-23T20:25:44.236Z,3.35
2023-05-23T20:30:46.067Z,4.25
2023-05-23T20:35:48.439Z,3.83
2023-05-23T20:40:52.241Z,3.60
2023-05-23T20:45:54.973Z,3.97
2023-05-23T20:50:57.287Z,4.10
2023-05-23T20:55:59.109Z,3.92
2023-05-23T21:01:00.734Z,4.20
2023-05-23T21:06:02.377Z,4.90
2023-05-23T21:11:03.948Z,4.63
2023-05-23T21:16:06.085Z,4.60
2023-05-23T21:21:07.697Z,4.63
2023-05-23T21:26:09.248Z,5.00
2023-05-23T21:31:12.708Z,3.20
2023-05-23T21:36:14.377Z,4.65
2023-05-23T21:41:15.935Z,4.40
2023-05-23T21:46:19.071Z,5.57
2023-05-23T21:51:20.623Z,3.95
2023-05-23T21:56:22.177Z,3.85
2023-05-23T22:01:23.752Z,4.68
2023-05-23T22:06:25.328Z,4.03
2023-05-23T22:11:33.717Z,4.45
2023-05-23T22:16:41.623Z,4.55
2023-05-23T22:21:43.270Z,4.15
2023-05-23T22:26:44.829Z,4.15
2023-05-23T22:31:47.552Z,4.90
2023-05-23T22:36:49.190Z,4.25
2023-05-23T22:41:51.042Z,4.47
2023-05-23T22:46:52.720Z,4.90
2023-05-23T22:51:54.291Z,4.60
2023-05-23T22:56:55.976Z,4.03
2023-05-23T23:01:57.539Z,4.88
2023-05-23T23:06:59.360Z,5.05
2023-05-23T23:12:01.269Z,5.47
2023-05-23T23:17:03.375Z,5.65
2023-05-23T23:22:05.089Z,5.18
2023-05-23T23:27:06.607Z,5.15
2023-05-23T23:32:08.239Z,5.10
2023-05-23T23:37:09.871Z,5.35
2023-05-23T23:42:11.452Z,5.35
2023-05-23T23:47:13.023Z,5.40
2023-05-23T23:52:14.986Z,5.05
2023-05-23T23:57:16.537Z,5.32
